sensor_id;sensor_type;location;lat;lon;timestamp;pressure;altitude;pressure_sealevel;temperature;humidity
71361;BME280;59166;48.908;1.870;2022-09-04T00:03:49;100127.13;;;18.22;74.30
71361;BME280;59166;48.908;1.870;2022-09-04T00:09:03;100135.66;;;18.20;74.38
71361;BME280;59166;48.908;1.870;2022-09-04T00:14:08;100130.28;;;18.15;74.57
71361;BME280;59166;48.908;1.870;2022-09-04T00:19:22;100140.84;;;18.08;73.86
71361;BME280;59166;48.908;1.870;2022-09-04T00:24:29;100138.72;;;17.96;73.99
71361;BME280;59166;48.908;1.870;2022-09-04T00:29:39;100135.28;;;17.91;74.00
71361;BME280;59166;48.908;1.870;2022-09-04T00:34:54;100128.84;;;17.87;73.77
71361;BME280;59166;48.908;1.870;2022-09-04T00:40:05;100137.28;;;17.77;73.40
71361;BME280;59166;48.908;1.870;2022-09-04T00:45:28;100139.84;;;17.73;73.43
71361;BME280;59166;48.908;1.870;2022-09-04T00:50:41;100152.72;;;17.73;73.14
71361;BME280;59166;48.908;1.870;2022-09-04T00:56:16;100148.78;;;17.65;72.78
71361;BME280;59166;48.908;1.870;2022-09-04T01:01:25;100158.84;;;17.56;72.86
71361;BME280;59166;48.908;1.870;2022-09-04T01:06:33;100160.41;;;17.49;73.40
71361;BME280;59166;48.908;1.870;2022-09-04T01:11:39;100171.44;;;17.43;73.25
71361;BME280;59166;48.908;1.870;2022-09-04T01:16:45;100180.03;;;17.37;73.50
71361;BME280;59166;48.908;1.870;2022-09-04T01:27:29;100196.03;;;17.30;73.81
71361;BME280;59166;48.908;1.870;2022-09-04T01:32:41;100207.19;;;17.20;74.26
71361;BME280;59166;48.908;1.870;2022-09-04T01:37:51;100206.00;;;16.99;75.07
71361;BME280;59166;48.908;1.870;2022-09-04T01:43:02;100199.41;;;16.86;75.86
71361;BME280;59166;48.908;1.870;2022-09-04T01:48:05;100196.69;;;16.86;75.87
71361;BME280;59166;48.908;1.870;2022-09-04T01:53:10;100204.38;;;16.84;75.64
71361;BME280;59166;48.908;1.870;2022-09-04T01:58:22;100209.84;;;16.84;75.61
71361;BME280;59166;48.908;1.870;2022-09-04T02:03:30;100211.88;;;16.78;75.98
71361;BME280;59166;48.908;1.870;2022-09-04T02:08:49;100214.69;;;16.73;76.17
71361;BME280;59166;48.908;1.870;2022-09-04T02:14:14;100230.84;;;16.70;76.35
71361;BME280;59166;48.908;1.870;2022-09-04T02:19:25;100240.44;;;16.54;76.95
71361;BME280;59166;48.908;1.870;2022-09-04T02:24:36;100239.13;;;16.51;77.26
71361;BME280;59166;48.908;1.870;2022-09-04T02:29:46;100244.66;;;16.46;77.44
71361;BME280;59166;48.908;1.870;2022-09-04T02:34:52;100251.28;;;16.26;78.12
71361;BME280;59166;48.908;1.870;2022-09-04T02:40:00;100261.97;;;16.23;78.24
71361;BME280;59166;48.908;1.870;2022-09-04T02:45:12;100264.13;;;16.07;78.85
71361;BME280;59166;48.908;1.870;2022-09-04T02:50:27;100262.78;;;16.05;79.16
71361;BME280;59166;48.908;1.870;2022-09-04T02:55:48;100268.47;;;16.08;78.68
71361;BME280;59166;48.908;1.870;2022-09-04T03:00:58;100270.84;;;15.96;78.95
71361;BME280;59166;48.908;1.870;2022-09-04T03:06:07;100266.56;;;15.90;79.31
71361;BME280;59166;48.908;1.870;2022-09-04T03:11:14;100265.59;;;15.81;79.55
71361;BME280;59166;48.908;1.870;2022-09-04T03:16:22;100265.31;;;15.82;79.63
71361;BME280;59166;48.908;1.870;2022-09-04T03:21:28;100267.59;;;15.75;79.82
71361;BME280;59166;48.908;1.870;2022-09-04T03:26:33;100258.72;;;15.70;79.62
71361;BME280;59166;48.908;1.870;2022-09-04T03:31:43;100274.66;;;15.58;80.25
71361;BME280;59166;48.908;1.870;2022-09-04T03:36:58;100270.16;;;15.48;80.49
71361;BME280;59166;48.908;1.870;2022-09-04T03:42:07;100276.56;;;15.38;81.10
71361;BME280;59166;48.908;1.870;2022-09-04T03:47:21;100273.16;;;15.28;81.29
71361;BME280;59166;48.908;1.870;2022-09-04T03:52:29;100274.38;;;15.17;81.94
71361;BME280;59166;48.908;1.870;2022-09-04T03:57:45;100276.94;;;15.08;82.47
71361;BME280;59166;48.908;1.870;2022-09-04T04:03:08;100280.13;;;15.15;81.80
71361;BME280;59166;48.908;1.870;2022-09-04T04:08:31;100284.91;;;15.23;81.59
71361;BME280;59166;48.908;1.870;2022-09-04T04:13:52;100294.25;;;15.17;81.55
71361;BME280;59166;48.908;1.870;2022-09-04T04:19:22;100288.31;;;15.15;81.45
71361;BME280;59166;48.908;1.870;2022-09-04T04:24:50;100296.22;;;15.12;81.64
71361;BME280;59166;48.908;1.870;2022-09-04T04:30:03;100300.63;;;15.08;83.28
71361;BME280;59166;48.908;1.870;2022-09-04T04:35:17;100297.50;;;14.96;82.20
71361;BME280;59166;48.908;1.870;2022-09-04T04:40:29;100296.13;;;14.93;82.13
71361;BME280;59166;48.908;1.870;2022-09-04T04:45:36;100305.13;;;14.93;81.91
71361;BME280;59166;48.908;1.870;2022-09-04T04:50:44;100314.09;;;14.94;82.14
71361;BME280;59166;48.908;1.870;2022-09-04T04:55:51;100314.66;;;14.91;82.15
71361;BME280;59166;48.908;1.870;2022-09-04T05:00:59;100319.94;;;14.82;82.07
71361;BME280;59166;48.908;1.870;2022-09-04T05:06:10;100332.13;;;14.85;82.10
71361;BME280;59166;48.908;1.870;2022-09-04T05:11:18;100327.03;;;14.78;82.32
71361;BME280;59166;48.908;1.870;2022-09-04T05:16:24;100331.19;;;14.71;82.68
71361;BME280;59166;48.908;1.870;2022-09-04T05:21:35;100333.88;;;14.76;82.38
71361;BME280;59166;48.908;1.870;2022-09-04T05:26:44;100344.94;;;14.79;82.40
71361;BME280;59166;48.908;1.870;2022-09-04T05:31:52;100346.31;;;14.82;82.35
71361;BME280;59166;48.908;1.870;2022-09-04T05:37:05;100348.72;;;14.83;82.67
71361;BME280;59166;48.908;1.870;2022-09-04T05:42:37;100355.28;;;14.82;82.80
71361;BME280;59166;48.908;1.870;2022-09-04T05:47:43;100363.72;;;14.81;82.66
71361;BME280;59166;48.908;1.870;2022-09-04T05:53:01;100369.44;;;14.79;82.89
71361;BME280;59166;48.908;1.870;2022-09-04T05:58:29;100371.63;;;14.77;82.97
71361;BME280;59166;48.908;1.870;2022-09-04T06:03:48;100376.81;;;14.79;82.51
71361;BME280;59166;48.908;1.870;2022-09-04T06:09:22;100385.22;;;14.82;82.55
71361;BME280;59166;48.908;1.870;2022-09-04T06:15:01;100390.31;;;14.89;82.13
71361;BME280;59166;48.908;1.870;2022-09-04T06:20:12;100400.59;;;14.97;82.29
71361;BME280;59166;48.908;1.870;2022-09-04T06:30:56;100408.13;;;15.05;83.30
71361;BME280;59166;48.908;1.870;2022-09-04T06:36:14;100409.47;;;15.08;82.75
71361;BME280;59166;48.908;1.870;2022-09-04T06:41:42;100412.94;;;15.13;82.64
71361;BME280;59166;48.908;1.870;2022-09-04T06:47:01;100416.38;;;15.24;82.25
71361;BME280;59166;48.908;1.870;2022-09-04T06:52:12;100423.22;;;15.45;82.73
71361;BME280;59166;48.908;1.870;2022-09-04T06:57:37;100434.09;;;15.69;81.70
71361;BME280;59166;48.908;1.870;2022-09-04T07:02:55;100443.94;;;15.88;80.14
71361;BME280;59166;48.908;1.870;2022-09-04T07:08:05;100436.75;;;15.98;79.19
71361;BME280;59166;48.908;1.870;2022-09-04T07:13:35;100440.31;;;16.17;79.26
71361;BME280;59166;48.908;1.870;2022-09-04T07:24:38;100450.88;;;16.61;77.09
71361;BME280;59166;48.908;1.870;2022-09-04T07:29:50;100450.97;;;16.88;76.49
71361;BME280;59166;48.908;1.870;2022-09-04T07:34:59;100462.84;;;17.11;76.18
71361;BME280;59166;48.908;1.870;2022-09-04T07:40:08;100460.41;;;17.41;75.01
71361;BME280;59166;48.908;1.870;2022-09-04T07:45:21;100478.66;;;17.60;74.08
71361;BME280;59166;48.908;1.870;2022-09-04T07:50:32;100472.59;;;17.76;75.55
71361;BME280;59166;48.908;1.870;2022-09-04T07:55:36;100472.38;;;17.86;74.68
71361;BME280;59166;48.908;1.870;2022-09-04T08:00:49;100475.81;;;18.06;73.89
71361;BME280;59166;48.908;1.870;2022-09-04T08:05:58;100486.50;;;18.43;72.66
71361;BME280;59166;48.908;1.870;2022-09-04T08:11:18;100496.59;;;18.56;73.03
71361;BME280;59166;48.908;1.870;2022-09-04T08:16:27;100492.88;;;19.10;71.76
71361;BME280;59166;48.908;1.870;2022-09-04T08:21:32;100500.72;;;19.25;71.30
71361;BME280;59166;48.908;1.870;2022-09-04T08:26:39;100493.09;;;19.44;69.34
71361;BME280;59166;48.908;1.870;2022-09-04T08:31:52;100499.75;;;19.61;69.42
71361;BME280;59166;48.908;1.870;2022-09-04T08:37:06;100502.28;;;20.27;64.46
71361;BME280;59166;48.908;1.870;2022-09-04T08:42:35;100510.75;;;20.74;64.31
71361;BME280;59166;48.908;1.870;2022-09-04T08:54:01;100512.72;;;22.09;58.00
71361;BME280;59166;48.908;1.870;2022-09-04T08:59:43;100509.28;;;22.41;57.31
71361;BME280;59166;48.908;1.870;2022-09-04T09:11:07;100520.72;;;23.14;54.66
71361;BME280;59166;48.908;1.870;2022-09-04T09:16:22;100513.84;;;23.20;53.84
71361;BME280;59166;48.908;1.870;2022-09-04T09:21:33;100518.03;;;23.26;54.28
71361;BME280;59166;48.908;1.870;2022-09-04T09:26:51;100508.69;;;23.64;52.90
71361;BME280;59166;48.908;1.870;2022-09-04T09:32:29;100506.31;;;23.86;49.96
71361;BME280;59166;48.908;1.870;2022-09-04T09:38:09;100513.47;;;24.12;48.88
71361;BME280;59166;48.908;1.870;2022-09-04T09:49:24;100511.38;;;24.33;48.95
71361;BME280;59166;48.908;1.870;2022-09-04T10:00:10;100507.53;;;24.62;48.58
71361;BME280;59166;48.908;1.870;2022-09-04T10:28:30;100496.63;;;25.48;46.60
71361;BME280;59166;48.908;1.870;2022-09-04T10:33:48;100500.19;;;25.65;45.73
71361;BME280;59166;48.908;1.870;2022-09-04T10:39:07;100491.53;;;25.82;44.98
71361;BME280;59166;48.908;1.870;2022-09-04T10:44:38;100487.34;;;25.88;43.07
71361;BME280;59166;48.908;1.870;2022-09-04T10:50:10;100468.59;;;25.97;43.96
71361;BME280;59166;48.908;1.870;2022-09-04T10:55:25;100485.47;;;26.08;43.31
71361;BME280;59166;48.908;1.870;2022-09-04T11:00:36;100483.47;;;26.59;43.30
71361;BME280;59166;48.908;1.870;2022-09-04T11:06:02;100470.84;;;26.61;43.42
71361;BME280;59166;48.908;1.870;2022-09-04T11:11:23;100468.13;;;26.99;41.98
71361;BME280;59166;48.908;1.870;2022-09-04T11:28:01;100469.41;;;27.47;40.93
71361;BME280;59166;48.908;1.870;2022-09-04T11:33:25;100471.03;;;27.71;41.69
71361;BME280;59166;48.908;1.870;2022-09-04T11:39:08;100478.16;;;27.95;39.78
71361;BME280;59166;48.908;1.870;2022-09-04T11:44:51;100466.66;;;28.19;38.45
71361;BME280;59166;48.908;1.870;2022-09-04T11:50:14;100466.75;;;28.26;39.94
71361;BME280;59166;48.908;1.870;2022-09-04T11:55:45;100469.69;;;28.37;39.85
71361;BME280;59166;48.908;1.870;2022-09-04T12:00:58;100461.81;;;28.42;39.04
71361;BME280;59166;48.908;1.870;2022-09-04T12:06:19;100456.66;;;28.41;38.42
71361;BME280;59166;48.908;1.870;2022-09-04T12:11:52;100453.22;;;28.51;38.14
71361;BME280;59166;48.908;1.870;2022-09-04T12:17:35;100449.38;;;28.63;38.98
71361;BME280;59166;48.908;1.870;2022-09-04T12:23:06;100444.09;;;28.84;38.51
71361;BME280;59166;48.908;1.870;2022-09-04T12:34:25;100448.19;;;28.93;38.26
71361;BME280;59166;48.908;1.870;2022-09-04T12:45:11;100442.03;;;29.11;37.25
71361;BME280;59166;48.908;1.870;2022-09-04T12:50:24;100428.94;;;29.15;37.53
71361;BME280;59166;48.908;1.870;2022-09-04T12:55:34;100426.59;;;29.20;36.66
71361;BME280;59166;48.908;1.870;2022-09-04T13:00:44;100410.69;;;29.17;36.19
71361;BME280;59166;48.908;1.870;2022-09-04T13:06:00;100412.47;;;28.99;36.78
71361;BME280;59166;48.908;1.870;2022-09-04T13:11:16;100422.06;;;29.38;37.16
71361;BME280;59166;48.908;1.870;2022-09-04T13:16:23;100412.56;;;29.46;36.13
71361;BME280;59166;48.908;1.870;2022-09-04T13:21:37;100410.34;;;29.63;36.01
71361;BME280;59166;48.908;1.870;2022-09-04T13:26:56;100395.47;;;29.95;35.72
71361;BME280;59166;48.908;1.870;2022-09-04T13:37:28;100388.63;;;29.35;36.25
71361;BME280;59166;48.908;1.870;2022-09-04T13:48:15;100377.66;;;29.56;34.92
71361;BME280;59166;48.908;1.870;2022-09-04T13:53:24;100382.66;;;28.96;37.27
71361;BME280;59166;48.908;1.870;2022-09-04T13:58:31;100375.72;;;28.79;36.59
71361;BME280;59166;48.908;1.870;2022-09-04T14:03:36;100375.59;;;29.46;35.75
71361;BME280;59166;48.908;1.870;2022-09-04T14:08:38;100374.66;;;29.82;35.01
71361;BME280;59166;48.908;1.870;2022-09-04T14:13:55;100371.00;;;29.24;35.87
71361;BME280;59166;48.908;1.870;2022-09-04T14:19:14;100361.44;;;28.81;37.43
71361;BME280;59166;48.908;1.870;2022-09-04T14:24:24;100363.31;;;29.10;36.51
71361;BME280;59166;48.908;1.870;2022-09-04T14:29:36;100352.09;;;29.43;36.02
71361;BME280;59166;48.908;1.870;2022-09-04T14:34:47;100350.63;;;29.60;34.83
71361;BME280;59166;48.908;1.870;2022-09-04T14:39:57;100352.03;;;29.36;34.87
71361;BME280;59166;48.908;1.870;2022-09-04T14:45:14;100341.91;;;29.62;35.27
71361;BME280;59166;48.908;1.870;2022-09-04T14:50:17;100340.53;;;29.92;35.00
71361;BME280;59166;48.908;1.870;2022-09-04T14:55:24;100337.84;;;29.48;35.10
71361;BME280;59166;48.908;1.870;2022-09-04T15:00:31;100331.88;;;29.06;35.12
71361;BME280;59166;48.908;1.870;2022-09-04T15:05:35;100326.75;;;29.08;36.01
71361;BME280;59166;48.908;1.870;2022-09-04T15:10:45;100317.53;;;28.64;36.04
71361;BME280;59166;48.908;1.870;2022-09-04T15:15:50;100314.06;;;28.70;35.96
71361;BME280;59166;48.908;1.870;2022-09-04T15:20:56;100306.41;;;29.00;35.56
71361;BME280;59166;48.908;1.870;2022-09-04T15:26:02;100294.38;;;29.33;34.96
71361;BME280;59166;48.908;1.870;2022-09-04T15:31:10;100303.25;;;29.49;34.00
71361;BME280;59166;48.908;1.870;2022-09-04T15:36:15;100289.00;;;29.65;33.14
71361;BME280;59166;48.908;1.870;2022-09-04T15:41:20;100287.78;;;29.56;32.86
71361;BME280;59166;48.908;1.870;2022-09-04T15:57:29;100264.88;;;29.90;31.75
71361;BME280;59166;48.908;1.870;2022-09-04T16:02:37;100269.72;;;29.93;31.77
71361;BME280;59166;48.908;1.870;2022-09-04T16:07:48;100272.91;;;29.99;31.45
71361;BME280;59166;48.908;1.870;2022-09-04T16:12:58;100281.53;;;29.80;32.12
71361;BME280;59166;48.908;1.870;2022-09-04T16:18:07;100273.13;;;29.69;31.40
71361;BME280;59166;48.908;1.870;2022-09-04T16:23:10;100283.00;;;29.56;30.54
71361;BME280;59166;48.908;1.870;2022-09-04T16:28:21;100291.69;;;29.00;32.21
71361;BME280;59166;48.908;1.870;2022-09-04T16:33:28;100285.41;;;28.66;32.97
71361;BME280;59166;48.908;1.870;2022-09-04T16:38:33;100280.06;;;28.50;32.84
71361;BME280;59166;48.908;1.870;2022-09-04T16:44:06;100277.53;;;28.72;32.29
71361;BME280;59166;48.908;1.870;2022-09-04T16:49:13;100277.91;;;29.14;31.49
71361;BME280;59166;48.908;1.870;2022-09-04T16:54:23;100280.72;;;29.18;30.93
71361;BME280;59166;48.908;1.870;2022-09-04T16:59:30;100279.00;;;28.62;31.64
71361;BME280;59166;48.908;1.870;2022-09-04T17:04:35;100275.53;;;28.35;32.34
71361;BME280;59166;48.908;1.870;2022-09-04T17:09:45;100280.91;;;28.18;32.95
71361;BME280;59166;48.908;1.870;2022-09-04T17:14:54;100277.81;;;28.26;32.33
71361;BME280;59166;48.908;1.870;2022-09-04T17:20:03;100264.41;;;28.35;32.67
71361;BME280;59166;48.908;1.870;2022-09-04T17:25:22;100264.78;;;28.30;32.73
71361;BME280;59166;48.908;1.870;2022-09-04T17:30:32;100265.38;;;28.13;33.05
71361;BME280;59166;48.908;1.870;2022-09-04T17:35:41;100263.16;;;27.96;32.67
71361;BME280;59166;48.908;1.870;2022-09-04T17:40:58;100269.66;;;27.77;33.05
71361;BME280;59166;48.908;1.870;2022-09-04T17:46:10;100263.63;;;27.72;33.38
71361;BME280;59166;48.908;1.870;2022-09-04T17:51:17;100265.88;;;27.63;33.49
71361;BME280;59166;48.908;1.870;2022-09-04T17:56:24;100261.28;;;27.47;34.60
71361;BME280;59166;48.908;1.870;2022-09-04T18:01:30;100257.44;;;27.29;35.34
71361;BME280;59166;48.908;1.870;2022-09-04T18:06:37;100249.38;;;27.21;36.02
71361;BME280;59166;48.908;1.870;2022-09-04T18:11:43;100239.59;;;27.04;36.36
71361;BME280;59166;48.908;1.870;2022-09-04T18:16:56;100244.44;;;26.84;36.50
71361;BME280;59166;48.908;1.870;2022-09-04T18:22:02;100247.19;;;26.62;37.04
71361;BME280;59166;48.908;1.870;2022-09-04T18:27:09;100245.84;;;26.52;37.29
71361;BME280;59166;48.908;1.870;2022-09-04T18:32:19;100254.31;;;26.40;38.04
71361;BME280;59166;48.908;1.870;2022-09-04T18:37:25;100253.47;;;26.17;38.94
71361;BME280;59166;48.908;1.870;2022-09-04T18:42:35;100252.00;;;26.03;39.39
71361;BME280;59166;48.908;1.870;2022-09-04T18:47:49;100249.66;;;26.06;38.89
71361;BME280;59166;48.908;1.870;2022-09-04T18:53:08;100256.06;;;25.90;39.74
71361;BME280;59166;48.908;1.870;2022-09-04T18:58:42;100257.63;;;25.88;39.35
71361;BME280;59166;48.908;1.870;2022-09-04T19:03:56;100262.91;;;25.77;39.79
71361;BME280;59166;48.908;1.870;2022-09-04T19:09:08;100266.75;;;25.73;39.65
71361;BME280;59166;48.908;1.870;2022-09-04T19:14:41;100254.53;;;25.74;39.02
71361;BME280;59166;48.908;1.870;2022-09-04T19:19:49;100262.31;;;25.68;39.96
71361;BME280;59166;48.908;1.870;2022-09-04T19:24:53;100267.19;;;25.56;39.18
71361;BME280;59166;48.908;1.870;2022-09-04T19:30:00;100267.19;;;25.56;38.93
71361;BME280;59166;48.908;1.870;2022-09-04T19:35:17;100280.03;;;25.48;38.80
71361;BME280;59166;48.908;1.870;2022-09-04T19:40:24;100275.22;;;25.45;38.67
71361;BME280;59166;48.908;1.870;2022-09-04T19:45:36;100276.66;;;25.39;38.27
71361;BME280;59166;48.908;1.870;2022-09-04T19:51:27;100274.59;;;25.36;38.20
71361;BME280;59166;48.908;1.870;2022-09-04T19:56:30;100280.31;;;25.27;37.76
71361;BME280;59166;48.908;1.870;2022-09-04T20:01:43;100275.59;;;25.28;37.60
71361;BME280;59166;48.908;1.870;2022-09-04T20:06:51;100287.03;;;25.26;37.43
71361;BME280;59166;48.908;1.870;2022-09-04T20:18:04;100293.91;;;25.17;38.17
71361;BME280;59166;48.908;1.870;2022-09-04T20:23:56;100295.78;;;25.13;38.00
71361;BME280;59166;48.908;1.870;2022-09-04T20:29:08;100284.34;;;24.98;38.56
71361;BME280;59166;48.908;1.870;2022-09-04T20:34:43;100292.22;;;24.96;39.29
71361;BME280;59166;48.908;1.870;2022-09-04T20:39:56;100293.63;;;24.90;39.89
71361;BME280;59166;48.908;1.870;2022-09-04T20:45:01;100293.63;;;24.90;40.42
71361;BME280;59166;48.908;1.870;2022-09-04T20:50:21;100297.66;;;24.93;40.67
71361;BME280;59166;48.908;1.870;2022-09-04T20:55:40;100312.44;;;24.85;41.15
71361;BME280;59166;48.908;1.870;2022-09-04T21:00:49;100316.97;;;24.77;41.66
71361;BME280;59166;48.908;1.870;2022-09-04T21:06:06;100308.13;;;24.72;42.14
71361;BME280;59166;48.908;1.870;2022-09-04T21:11:13;100317.47;;;24.67;42.55
71361;BME280;59166;48.908;1.870;2022-09-04T21:16:23;100319.06;;;24.68;42.79
71361;BME280;59166;48.908;1.870;2022-09-04T21:27:23;100336.69;;;24.64;43.50
71361;BME280;59166;48.908;1.870;2022-09-04T21:32:47;100365.13;;;24.64;43.67
71361;BME280;59166;48.908;1.870;2022-09-04T21:37:54;100411.13;;;24.44;44.58
71361;BME280;59166;48.908;1.870;2022-09-04T21:43:14;100425.84;;;24.09;44.48
71361;BME280;59166;48.908;1.870;2022-09-04T21:48:50;100458.81;;;23.93;46.99
71361;BME280;59166;48.908;1.870;2022-09-04T21:54:07;100456.16;;;23.72;50.19
71361;BME280;59166;48.908;1.870;2022-09-04T21:59:33;100425.00;;;23.35;54.27
71361;BME280;59166;48.908;1.870;2022-09-04T22:04:47;100430.97;;;22.92;58.15
71361;BME280;59166;48.908;1.870;2022-09-04T22:10:06;100403.13;;;22.32;63.21
71361;BME280;59166;48.908;1.870;2022-09-04T22:15:14;100382.78;;;22.04;63.34
71361;BME280;59166;48.908;1.870;2022-09-04T22:20:22;100387.59;;;22.07;61.98
71361;BME280;59166;48.908;1.870;2022-09-04T22:25:44;100407.34;;;21.88;64.30
71361;BME280;59166;48.908;1.870;2022-09-04T22:31:11;100413.13;;;21.57;65.31
71361;BME280;59166;48.908;1.870;2022-09-04T22:36:40;100371.81;;;21.45;62.14
71361;BME280;59166;48.908;1.870;2022-09-04T22:42:12;100412.50;;;21.52;59.74
71361;BME280;59166;48.908;1.870;2022-09-04T22:47:44;100463.56;;;21.15;66.26
71361;BME280;59166;48.908;1.870;2022-09-04T22:53:03;100425.78;;;20.94;68.27
71361;BME280;59166;48.908;1.870;2022-09-04T22:58:25;100374.91;;;20.80;70.41
71361;BME280;59166;48.908;1.870;2022-09-04T23:03:45;100306.25;;;20.80;69.11
71361;BME280;59166;48.908;1.870;2022-09-04T23:09:14;100314.19;;;20.64;63.22
71361;BME280;59166;48.908;1.870;2022-09-04T23:14:32;100322.34;;;21.07;63.37
71361;BME280;59166;48.908;1.870;2022-09-04T23:25:28;100302.41;;;20.72;67.27
71361;BME280;59166;48.908;1.870;2022-09-04T23:30:42;100299.00;;;20.75;68.54
71361;BME280;59166;48.908;1.870;2022-09-04T23:35:59;100292.38;;;20.68;68.76
71361;BME280;59166;48.908;1.870;2022-09-04T23:41:06;100290.50;;;20.60;69.30
71361;BME280;59166;48.908;1.870;2022-09-04T23:46:36;100325.25;;;20.47;69.17
71361;BME280;59166;48.908;1.870;2022-09-04T23:51:44;100321.19;;;20.27;69.67
71361;BME280;59166;48.908;1.870;2022-09-04T23:56:52;100327.50;;;20.28;68.84
